sensor_id;sensor_type;location;lat;lon;timestamp;P1;durP1;ratioP1;P2;durP2;ratioP2
24771;SDS011;12870;52.274;9.754;2022-11-20T00:03:37;0.40;;;0.40;;
24771;SDS011;12870;52.274;9.754;2022-11-20T00:06:04;0.40;;;0.40;;
24771;SDS011;12870;52.274;9.754;2022-11-20T00:08:31;0.40;;;0.40;;
24771;SDS011;12870;52.274;9.754;2022-11-20T00:10:56;0.40;;;0.40;;
24771;SDS011;12870;52.274;9.754;2022-11-20T00:13:22;0.40;;;0.40;;
24771;SDS011;12870;52.274;9.754;2022-11-20T00:15:48;0.40;;;0.40;;
24771;SDS011;12870;52.274;9.754;2022-11-20T00:18:14;0.40;;;0.40;;
24771;SDS011;12870;52.274;9.754;2022-11-20T00:20:39;0.40;;;0.40;;
24771;SDS011;12870;52.274;9.754;2022-11-20T00:23:05;0.40;;;0.40;;
24771;SDS011;12870;52.274;9.754;2022-11-20T00:25:33;0.40;;;0.40;;
24771;SDS011;12870;52.274;9.754;2022-11-20T00:27:59;0.40;;;0.40;;
24771;SDS011;12870;52.274;9.754;2022-11-20T00:30:25;0.40;;;0.40;;
24771;SDS011;12870;52.274;9.754;2022-11-20T00:32:50;0.40;;;0.40;;
24771;SDS011;12870;52.274;9.754;2022-11-20T00:35:16;0.40;;;0.40;;
24771;SDS011;12870;52.274;9.754;2022-11-20T00:37:43;0.40;;;0.40;;
24771;SDS011;12870;52.274;9.754;2022-11-20T00:40:08;0.40;;;0.40;;
24771;SDS011;12870;52.274;9.754;2022-11-20T00:42:36;0.40;;;0.40;;
24771;SDS011;12870;52.274;9.754;2022-11-20T00:45:01;0.40;;;0.40;;
24771;SDS011;12870;52.274;9.754;2022-11-20T00:47:27;0.40;;;0.40;;
24771;SDS011;12870;52.274;9.754;2022-11-20T00:49:53;0.40;;;0.40;;
24771;SDS011;12870;52.274;9.754;2022-11-20T00:52:18;0.40;;;0.40;;
24771;SDS011;12870;52.274;9.754;2022-11-20T00:54:44;0.40;;;0.40;;
24771;SDS011;12870;52.274;9.754;2022-11-20T00:57:09;0.40;;;0.40;;
24771;SDS011;12870;52.274;9.754;2022-11-20T00:59:35;0.50;;;0.50;;
24771;SDS011;12870;52.274;9.754;2022-11-20T01:02:01;0.40;;;0.40;;
24771;SDS011;12870;52.274;9.754;2022-11-20T01:04:27;0.40;;;0.40;;
24771;SDS011;12870;52.274;9.754;2022-11-20T01:06:52;0.40;;;0.40;;
24771;SDS011;12870;52.274;9.754;2022-11-20T01:09:18;0.40;;;0.40;;
24771;SDS011;12870;52.274;9.754;2022-11-20T01:11:44;0.40;;;0.40;;
24771;SDS011;12870;52.274;9.754;2022-11-20T01:14:11;0.40;;;0.40;;
24771;SDS011;12870;52.274;9.754;2022-11-20T01:16:40;0.40;;;0.40;;
24771;SDS011;12870;52.274;9.754;2022-11-20T01:19:12;0.40;;;0.40;;
24771;SDS011;12870;52.274;9.754;2022-11-20T01:21:40;0.40;;;0.40;;
24771;SDS011;12870;52.274;9.754;2022-11-20T01:24:08;0.40;;;0.40;;
24771;SDS011;12870;52.274;9.754;2022-11-20T01:26:37;0.40;;;0.40;;
24771;SDS011;12870;52.274;9.754;2022-11-20T01:29:04;0.50;;;0.50;;
24771;SDS011;12870;52.274;9.754;2022-11-20T01:31:32;0.40;;;0.40;;
24771;SDS011;12870;52.274;9.754;2022-11-20T01:34:03;0.40;;;0.40;;
24771;SDS011;12870;52.274;9.754;2022-11-20T01:36:33;0.40;;;0.40;;
24771;SDS011;12870;52.274;9.754;2022-11-20T01:39:01;0.40;;;0.40;;
24771;SDS011;12870;52.274;9.754;2022-11-20T01:41:32;0.40;;;0.40;;
24771;SDS011;12870;52.274;9.754;2022-11-20T01:44:18;0.40;;;0.40;;
24771;SDS011;12870;52.274;9.754;2022-11-20T01:46:54;0.40;;;0.40;;
24771;SDS011;12870;52.274;9.754;2022-11-20T01:49:35;0.40;;;0.40;;
24771;SDS011;12870;52.274;9.754;2022-11-20T01:52:10;0.50;;;0.50;;
24771;SDS011;12870;52.274;9.754;2022-11-20T01:54:46;0.40;;;0.40;;
24771;SDS011;12870;52.274;9.754;2022-11-20T01:57:23;0.40;;;0.40;;
24771;SDS011;12870;52.274;9.754;2022-11-20T01:59:53;0.40;;;0.40;;
24771;SDS011;12870;52.274;9.754;2022-11-20T02:02:25;0.40;;;0.40;;
24771;SDS011;12870;52.274;9.754;2022-11-20T02:04:51;0.40;;;0.40;;
24771;SDS011;12870;52.274;9.754;2022-11-20T02:07:22;0.40;;;0.40;;
24771;SDS011;12870;52.274;9.754;2022-11-20T02:09:48;0.40;;;0.40;;
24771;SDS011;12870;52.274;9.754;2022-11-20T02:12:14;0.40;;;0.40;;
24771;SDS011;12870;52.274;9.754;2022-11-20T02:14:59;0.40;;;0.40;;
24771;SDS011;12870;52.274;9.754;2022-11-20T02:17:24;0.40;;;0.40;;
24771;SDS011;12870;52.274;9.754;2022-11-20T02:19:50;0.40;;;0.40;;
24771;SDS011;12870;52.274;9.754;2022-11-20T02:22:19;0.40;;;0.40;;
24771;SDS011;12870;52.274;9.754;2022-11-20T02:24:59;0.40;;;0.40;;
24771;SDS011;12870;52.274;9.754;2022-11-20T02:27:27;0.40;;;0.40;;
24771;SDS011;12870;52.274;9.754;2022-11-20T02:29:56;0.40;;;0.40;;
24771;SDS011;12870;52.274;9.754;2022-11-20T02:32:30;0.40;;;0.40;;
24771;SDS011;12870;52.274;9.754;2022-11-20T02:34:58;0.40;;;0.40;;
24771;SDS011;12870;52.274;9.754;2022-11-20T02:37:32;0.40;;;0.40;;
24771;SDS011;12870;52.274;9.754;2022-11-20T02:40:02;0.40;;;0.40;;
24771;SDS011;12870;52.274;9.754;2022-11-20T02:42:28;0.40;;;0.40;;
24771;SDS011;12870;52.274;9.754;2022-11-20T02:44:53;0.40;;;0.40;;
24771;SDS011;12870;52.274;9.754;2022-11-20T02:47:19;0.40;;;0.40;;
24771;SDS011;12870;52.274;9.754;2022-11-20T02:49:45;0.40;;;0.40;;
24771;SDS011;12870;52.274;9.754;2022-11-20T02:52:10;0.40;;;0.40;;
24771;SDS011;12870;52.274;9.754;2022-11-20T02:54:36;0.40;;;0.40;;
24771;SDS011;12870;52.274;9.754;2022-11-20T02:57:02;0.40;;;0.40;;
24771;SDS011;12870;52.274;9.754;2022-11-20T02:59:27;0.40;;;0.40;;
24771;SDS011;12870;52.274;9.754;2022-11-20T03:01:53;0.40;;;0.40;;
24771;SDS011;12870;52.274;9.754;2022-11-20T03:04:18;0.40;;;0.40;;
24771;SDS011;12870;52.274;9.754;2022-11-20T03:06:44;0.40;;;0.40;;
24771;SDS011;12870;52.274;9.754;2022-11-20T03:09:10;0.40;;;0.40;;
24771;SDS011;12870;52.274;9.754;2022-11-20T03:11:36;0.40;;;0.40;;
24771;SDS011;12870;52.274;9.754;2022-11-20T03:14:02;0.40;;;0.40;;
24771;SDS011;12870;52.274;9.754;2022-11-20T03:16:30;0.40;;;0.40;;
24771;SDS011;12870;52.274;9.754;2022-11-20T03:18:57;0.40;;;0.40;;
24771;SDS011;12870;52.274;9.754;2022-11-20T03:21:22;0.40;;;0.40;;
24771;SDS011;12870;52.274;9.754;2022-11-20T03:23:48;0.40;;;0.40;;
24771;SDS011;12870;52.274;9.754;2022-11-20T03:28:51;0.40;;;0.40;;
24771;SDS011;12870;52.274;9.754;2022-11-20T03:31:19;0.40;;;0.40;;
24771;SDS011;12870;52.274;9.754;2022-11-20T03:33:47;0.40;;;0.40;;
24771;SDS011;12870;52.274;9.754;2022-11-20T03:36:13;0.40;;;0.40;;
24771;SDS011;12870;52.274;9.754;2022-11-20T03:38:40;0.40;;;0.40;;
24771;SDS011;12870;52.274;9.754;2022-11-20T03:41:07;0.40;;;0.40;;
24771;SDS011;12870;52.274;9.754;2022-11-20T03:43:39;0.40;;;0.40;;
24771;SDS011;12870;52.274;9.754;2022-11-20T03:46:05;0.40;;;0.40;;
24771;SDS011;12870;52.274;9.754;2022-11-20T03:48:31;0.40;;;0.40;;
24771;SDS011;12870;52.274;9.754;2022-11-20T03:51:13;0.40;;;0.40;;
24771;SDS011;12870;52.274;9.754;2022-11-20T03:53:40;0.40;;;0.40;;
24771;SDS011;12870;52.274;9.754;2022-11-20T03:56:09;0.40;;;0.40;;
24771;SDS011;12870;52.274;9.754;2022-11-20T03:58:35;0.40;;;0.40;;
24771;SDS011;12870;52.274;9.754;2022-11-20T04:01:05;0.40;;;0.40;;
24771;SDS011;12870;52.274;9.754;2022-11-20T04:03:32;0.40;;;0.40;;
24771;SDS011;12870;52.274;9.754;2022-11-20T04:06:08;0.40;;;0.40;;
24771;SDS011;12870;52.274;9.754;2022-11-20T04:08:36;0.30;;;0.30;;
24771;SDS011;12870;52.274;9.754;2022-11-20T04:11:18;0.40;;;0.40;;
24771;SDS011;12870;52.274;9.754;2022-11-20T04:13:49;0.40;;;0.40;;
24771;SDS011;12870;52.274;9.754;2022-11-20T04:16:17;0.50;;;0.50;;
24771;SDS011;12870;52.274;9.754;2022-11-20T04:18:43;0.40;;;0.40;;
24771;SDS011;12870;52.274;9.754;2022-11-20T04:21:09;0.40;;;0.40;;
24771;SDS011;12870;52.274;9.754;2022-11-20T04:23:35;0.40;;;0.40;;
24771;SDS011;12870;52.274;9.754;2022-11-20T04:26:05;0.40;;;0.40;;
24771;SDS011;12870;52.274;9.754;2022-11-20T04:28:34;0.40;;;0.40;;
24771;SDS011;12870;52.274;9.754;2022-11-20T04:31:09;0.40;;;0.40;;
24771;SDS011;12870;52.274;9.754;2022-11-20T04:33:40;0.40;;;0.40;;
24771;SDS011;12870;52.274;9.754;2022-11-20T04:36:14;0.40;;;0.40;;
24771;SDS011;12870;52.274;9.754;2022-11-20T04:38:42;0.40;;;0.40;;
24771;SDS011;12870;52.274;9.754;2022-11-20T04:41:08;0.40;;;0.40;;
24771;SDS011;12870;52.274;9.754;2022-11-20T04:43:47;0.47;;;0.47;;
24771;SDS011;12870;52.274;9.754;2022-11-20T04:46:14;0.40;;;0.40;;
24771;SDS011;12870;52.274;9.754;2022-11-20T04:48:40;0.40;;;0.40;;
24771;SDS011;12870;52.274;9.754;2022-11-20T04:51:06;0.40;;;0.40;;
24771;SDS011;12870;52.274;9.754;2022-11-20T04:53:31;0.40;;;0.40;;
24771;SDS011;12870;52.274;9.754;2022-11-20T04:56:01;0.40;;;0.40;;
24771;SDS011;12870;52.274;9.754;2022-11-20T04:58:27;0.40;;;0.40;;
24771;SDS011;12870;52.274;9.754;2022-11-20T05:00:53;0.40;;;0.40;;
24771;SDS011;12870;52.274;9.754;2022-11-20T05:03:25;0.40;;;0.40;;
24771;SDS011;12870;52.274;9.754;2022-11-20T05:05:51;0.40;;;0.40;;
24771;SDS011;12870;52.274;9.754;2022-11-20T05:08:16;0.47;;;0.47;;
24771;SDS011;12870;52.274;9.754;2022-11-20T05:10:42;0.40;;;0.40;;
24771;SDS011;12870;52.274;9.754;2022-11-20T05:13:07;0.40;;;0.40;;
24771;SDS011;12870;52.274;9.754;2022-11-20T05:15:33;0.40;;;0.40;;
24771;SDS011;12870;52.274;9.754;2022-11-20T05:17:59;0.40;;;0.40;;
24771;SDS011;12870;52.274;9.754;2022-11-20T05:20:24;0.40;;;0.40;;
24771;SDS011;12870;52.274;9.754;2022-11-20T05:22:50;0.40;;;0.40;;
24771;SDS011;12870;52.274;9.754;2022-11-20T05:25:15;0.40;;;0.40;;
24771;SDS011;12870;52.274;9.754;2022-11-20T05:27:41;0.40;;;0.40;;
24771;SDS011;12870;52.274;9.754;2022-11-20T05:30:07;0.40;;;0.40;;
24771;SDS011;12870;52.274;9.754;2022-11-20T05:32:34;0.40;;;0.40;;
24771;SDS011;12870;52.274;9.754;2022-11-20T05:34:59;0.40;;;0.40;;
24771;SDS011;12870;52.274;9.754;2022-11-20T05:37:25;0.40;;;0.40;;
24771;SDS011;12870;52.274;9.754;2022-11-20T05:39:50;0.40;;;0.40;;
24771;SDS011;12870;52.274;9.754;2022-11-20T05:42:16;0.40;;;0.40;;
24771;SDS011;12870;52.274;9.754;2022-11-20T05:45:00;0.40;;;0.40;;
24771;SDS011;12870;52.274;9.754;2022-11-20T05:47:30;0.40;;;0.40;;
24771;SDS011;12870;52.274;9.754;2022-11-20T05:49:58;0.40;;;0.40;;
24771;SDS011;12870;52.274;9.754;2022-11-20T05:52:24;0.40;;;0.40;;
24771;SDS011;12870;52.274;9.754;2022-11-20T05:54:49;0.40;;;0.40;;
24771;SDS011;12870;52.274;9.754;2022-11-20T05:57:15;0.40;;;0.40;;
24771;SDS011;12870;52.274;9.754;2022-11-20T05:59:41;0.40;;;0.40;;
24771;SDS011;12870;52.274;9.754;2022-11-20T06:02:07;0.40;;;0.40;;
24771;SDS011;12870;52.274;9.754;2022-11-20T06:04:33;0.40;;;0.40;;
24771;SDS011;12870;52.274;9.754;2022-11-20T06:06:58;0.40;;;0.40;;
24771;SDS011;12870;52.274;9.754;2022-11-20T06:09:24;0.40;;;0.40;;
24771;SDS011;12870;52.274;9.754;2022-11-20T06:11:49;0.40;;;0.40;;
24771;SDS011;12870;52.274;9.754;2022-11-20T06:14:15;0.40;;;0.40;;
24771;SDS011;12870;52.274;9.754;2022-11-20T06:16:41;0.30;;;0.30;;
24771;SDS011;12870;52.274;9.754;2022-11-20T06:19:06;0.40;;;0.40;;
24771;SDS011;12870;52.274;9.754;2022-11-20T06:21:32;0.40;;;0.40;;
24771;SDS011;12870;52.274;9.754;2022-11-20T06:23:58;0.40;;;0.40;;
24771;SDS011;12870;52.274;9.754;2022-11-20T06:26:25;0.40;;;0.40;;
24771;SDS011;12870;52.274;9.754;2022-11-20T06:28:52;0.40;;;0.40;;
24771;SDS011;12870;52.274;9.754;2022-11-20T06:31:20;0.40;;;0.40;;
24771;SDS011;12870;52.274;9.754;2022-11-20T06:33:47;0.40;;;0.40;;
24771;SDS011;12870;52.274;9.754;2022-11-20T06:36:14;0.40;;;0.40;;
24771;SDS011;12870;52.274;9.754;2022-11-20T06:38:41;0.40;;;0.40;;
24771;SDS011;12870;52.274;9.754;2022-11-20T06:41:08;0.40;;;0.40;;
24771;SDS011;12870;52.274;9.754;2022-11-20T06:43:37;0.40;;;0.40;;
24771;SDS011;12870;52.274;9.754;2022-11-20T06:46:03;0.40;;;0.40;;
24771;SDS011;12870;52.274;9.754;2022-11-20T06:48:29;0.40;;;0.40;;
24771;SDS011;12870;52.274;9.754;2022-11-20T06:50:55;0.40;;;0.40;;
24771;SDS011;12870;52.274;9.754;2022-11-20T06:53:22;0.40;;;0.40;;
24771;SDS011;12870;52.274;9.754;2022-11-20T06:55:48;0.40;;;0.40;;
24771;SDS011;12870;52.274;9.754;2022-11-20T06:58:15;0.40;;;0.40;;
24771;SDS011;12870;52.274;9.754;2022-11-20T07:00:42;0.40;;;0.40;;
24771;SDS011;12870;52.274;9.754;2022-11-20T07:03:09;0.40;;;0.40;;
24771;SDS011;12870;52.274;9.754;2022-11-20T07:05:36;0.40;;;0.40;;
24771;SDS011;12870;52.274;9.754;2022-11-20T07:08:03;0.40;;;0.40;;
24771;SDS011;12870;52.274;9.754;2022-11-20T07:10:30;0.40;;;0.40;;
24771;SDS011;12870;52.274;9.754;2022-11-20T07:12:56;0.40;;;0.40;;
24771;SDS011;12870;52.274;9.754;2022-11-20T07:15:22;0.40;;;0.40;;
24771;SDS011;12870;52.274;9.754;2022-11-20T07:17:49;0.40;;;0.40;;
24771;SDS011;12870;52.274;9.754;2022-11-20T07:20:15;0.40;;;0.40;;
24771;SDS011;12870;52.274;9.754;2022-11-20T07:22:41;0.40;;;0.40;;
24771;SDS011;12870;52.274;9.754;2022-11-20T07:25:07;0.40;;;0.40;;
24771;SDS011;12870;52.274;9.754;2022-11-20T07:27:34;0.40;;;0.40;;
24771;SDS011;12870;52.274;9.754;2022-11-20T07:30:00;0.40;;;0.40;;
24771;SDS011;12870;52.274;9.754;2022-11-20T07:32:26;0.40;;;0.40;;
24771;SDS011;12870;52.274;9.754;2022-11-20T07:34:51;0.40;;;0.40;;
24771;SDS011;12870;52.274;9.754;2022-11-20T07:37:17;0.40;;;0.40;;
24771;SDS011;12870;52.274;9.754;2022-11-20T07:39:43;0.40;;;0.40;;
24771;SDS011;12870;52.274;9.754;2022-11-20T07:42:09;0.40;;;0.40;;
24771;SDS011;12870;52.274;9.754;2022-11-20T07:44:37;0.40;;;0.40;;
24771;SDS011;12870;52.274;9.754;2022-11-20T07:47:03;0.40;;;0.40;;
24771;SDS011;12870;52.274;9.754;2022-11-20T07:49:28;0.40;;;0.40;;
24771;SDS011;12870;52.274;9.754;2022-11-20T07:51:54;0.40;;;0.40;;
24771;SDS011;12870;52.274;9.754;2022-11-20T07:54:20;0.40;;;0.40;;
24771;SDS011;12870;52.274;9.754;2022-11-20T07:56:46;0.40;;;0.40;;
24771;SDS011;12870;52.274;9.754;2022-11-20T07:59:12;0.30;;;0.30;;
24771;SDS011;12870;52.274;9.754;2022-11-20T08:01:39;0.37;;;0.37;;
24771;SDS011;12870;52.274;9.754;2022-11-20T08:04:05;0.30;;;0.30;;
24771;SDS011;12870;52.274;9.754;2022-11-20T08:06:31;0.40;;;0.40;;
24771;SDS011;12870;52.274;9.754;2022-11-20T08:08:57;0.40;;;0.40;;
24771;SDS011;12870;52.274;9.754;2022-11-20T08:11:23;0.40;;;0.40;;
24771;SDS011;12870;52.274;9.754;2022-11-20T08:14:07;0.40;;;0.40;;
24771;SDS011;12870;52.274;9.754;2022-11-20T08:16:42;0.40;;;0.40;;
24771;SDS011;12870;52.274;9.754;2022-11-20T08:19:09;0.40;;;0.40;;
24771;SDS011;12870;52.274;9.754;2022-11-20T08:21:36;0.40;;;0.40;;
24771;SDS011;12870;52.274;9.754;2022-11-20T08:24:02;0.40;;;0.40;;
24771;SDS011;12870;52.274;9.754;2022-11-20T08:26:28;0.40;;;0.40;;
24771;SDS011;12870;52.274;9.754;2022-11-20T08:28:54;0.40;;;0.40;;
24771;SDS011;12870;52.274;9.754;2022-11-20T08:31:21;0.40;;;0.40;;
24771;SDS011;12870;52.274;9.754;2022-11-20T08:33:47;0.40;;;0.40;;
24771;SDS011;12870;52.274;9.754;2022-11-20T08:36:12;0.40;;;0.40;;
24771;SDS011;12870;52.274;9.754;2022-11-20T08:38:38;0.40;;;0.40;;
24771;SDS011;12870;52.274;9.754;2022-11-20T08:41:04;0.40;;;0.40;;
24771;SDS011;12870;52.274;9.754;2022-11-20T08:43:49;0.40;;;0.40;;
24771;SDS011;12870;52.274;9.754;2022-11-20T08:46:18;0.40;;;0.40;;
24771;SDS011;12870;52.274;9.754;2022-11-20T08:48:44;0.40;;;0.40;;
24771;SDS011;12870;52.274;9.754;2022-11-20T08:51:10;0.40;;;0.40;;
24771;SDS011;12870;52.274;9.754;2022-11-20T08:53:36;0.40;;;0.40;;
24771;SDS011;12870;52.274;9.754;2022-11-20T08:56:03;0.40;;;0.40;;
24771;SDS011;12870;52.274;9.754;2022-11-20T08:58:29;0.40;;;0.40;;
24771;SDS011;12870;52.274;9.754;2022-11-20T09:00:54;0.40;;;0.40;;
24771;SDS011;12870;52.274;9.754;2022-11-20T09:03:20;0.40;;;0.40;;
24771;SDS011;12870;52.274;9.754;2022-11-20T09:05:46;0.40;;;0.40;;
24771;SDS011;12870;52.274;9.754;2022-11-20T09:08:11;0.40;;;0.40;;
24771;SDS011;12870;52.274;9.754;2022-11-20T09:10:37;0.40;;;0.40;;
24771;SDS011;12870;52.274;9.754;2022-11-20T09:13:06;0.30;;;0.30;;
24771;SDS011;12870;52.274;9.754;2022-11-20T09:15:32;0.40;;;0.40;;
24771;SDS011;12870;52.274;9.754;2022-11-20T09:17:59;0.40;;;0.40;;
24771;SDS011;12870;52.274;9.754;2022-11-20T09:20:27;0.40;;;0.40;;
24771;SDS011;12870;52.274;9.754;2022-11-20T09:22:54;0.40;;;0.40;;
24771;SDS011;12870;52.274;9.754;2022-11-20T09:25:20;0.40;;;0.40;;
24771;SDS011;12870;52.274;9.754;2022-11-20T09:27:46;0.30;;;0.30;;
24771;SDS011;12870;52.274;9.754;2022-11-20T09:30:15;0.40;;;0.40;;
24771;SDS011;12870;52.274;9.754;2022-11-20T09:32:41;0.40;;;0.40;;
24771;SDS011;12870;52.274;9.754;2022-11-20T09:35:08;0.30;;;0.30;;
24771;SDS011;12870;52.274;9.754;2022-11-20T09:37:35;0.30;;;0.30;;
24771;SDS011;12870;52.274;9.754;2022-11-20T09:40:01;0.30;;;0.30;;
24771;SDS011;12870;52.274;9.754;2022-11-20T09:42:37;0.40;;;0.40;;
24771;SDS011;12870;52.274;9.754;2022-11-20T09:53:41;0.30;;;0.30;;
24771;SDS011;12870;52.274;9.754;2022-11-20T09:56:14;0.40;;;0.40;;
24771;SDS011;12870;52.274;9.754;2022-11-20T09:58:41;0.33;;;0.33;;
24771;SDS011;12870;52.274;9.754;2022-11-20T10:01:19;0.30;;;0.30;;
24771;SDS011;12870;52.274;9.754;2022-11-20T10:09:37;0.30;;;0.30;;
24771;SDS011;12870;52.274;9.754;2022-11-20T10:12:20;0.40;;;0.40;;
24771;SDS011;12870;52.274;9.754;2022-11-20T10:20:32;0.30;;;0.30;;
24771;SDS011;12870;52.274;9.754;2022-11-20T10:23:18;0.30;;;0.30;;
24771;SDS011;12870;52.274;9.754;2022-11-20T10:26:03;0.30;;;0.30;;
24771;SDS011;12870;52.274;9.754;2022-11-20T10:31:36;0.30;;;0.30;;
24771;SDS011;12870;52.274;9.754;2022-11-20T10:37:18;0.30;;;0.30;;
24771;SDS011;12870;52.274;9.754;2022-11-20T10:39:54;0.30;;;0.30;;
24771;SDS011;12870;52.274;9.754;2022-11-20T10:42:41;0.30;;;0.30;;
24771;SDS011;12870;52.274;9.754;2022-11-20T10:47:48;0.30;;;0.30;;
24771;SDS011;12870;52.274;9.754;2022-11-20T10:50:17;0.30;;;0.30;;
24771;SDS011;12870;52.274;9.754;2022-11-20T10:52:56;0.30;;;0.30;;
24771;SDS011;12870;52.274;9.754;2022-11-20T10:55:43;0.30;;;0.30;;
24771;SDS011;12870;52.274;9.754;2022-11-20T10:58:14;0.30;;;0.30;;
24771;SDS011;12870;52.274;9.754;2022-11-20T11:00:47;0.30;;;0.30;;
24771;SDS011;12870;52.274;9.754;2022-11-20T11:03:24;0.30;;;0.30;;
24771;SDS011;12870;52.274;9.754;2022-11-20T11:05:58;0.30;;;0.30;;
24771;SDS011;12870;52.274;9.754;2022-11-20T11:08:53;0.30;;;0.30;;
24771;SDS011;12870;52.274;9.754;2022-11-20T11:11:24;0.30;;;0.30;;
24771;SDS011;12870;52.274;9.754;2022-11-20T11:14:11;0.30;;;0.30;;
24771;SDS011;12870;52.274;9.754;2022-11-20T11:16:51;0.30;;;0.30;;
24771;SDS011;12870;52.274;9.754;2022-11-20T11:19:18;0.30;;;0.30;;
24771;SDS011;12870;52.274;9.754;2022-11-20T11:21:46;0.30;;;0.30;;
24771;SDS011;12870;52.274;9.754;2022-11-20T11:24:19;0.30;;;0.30;;
24771;SDS011;12870;52.274;9.754;2022-11-20T11:26:57;0.30;;;0.30;;
24771;SDS011;12870;52.274;9.754;2022-11-20T11:29:25;0.30;;;0.30;;
24771;SDS011;12870;52.274;9.754;2022-11-20T11:32:04;0.30;;;0.30;;
24771;SDS011;12870;52.274;9.754;2022-11-20T11:34:40;0.30;;;0.30;;
24771;SDS011;12870;52.274;9.754;2022-11-20T11:37:10;0.30;;;0.30;;
24771;SDS011;12870;52.274;9.754;2022-11-20T11:39:42;0.30;;;0.30;;
24771;SDS011;12870;52.274;9.754;2022-11-20T11:42:12;0.30;;;0.30;;
24771;SDS011;12870;52.274;9.754;2022-11-20T11:44:45;0.30;;;0.30;;
24771;SDS011;12870;52.274;9.754;2022-11-20T11:47:37;0.30;;;0.30;;
24771;SDS011;12870;52.274;9.754;2022-11-20T12:04:02;0.30;;;0.30;;
24771;SDS011;12870;52.274;9.754;2022-11-20T12:06:32;0.30;;;0.30;;
24771;SDS011;12870;52.274;9.754;2022-11-20T12:09:05;0.30;;;0.30;;
24771;SDS011;12870;52.274;9.754;2022-11-20T12:11:37;0.30;;;0.30;;
24771;SDS011;12870;52.274;9.754;2022-11-20T12:17:05;0.30;;;0.30;;
24771;SDS011;12870;52.274;9.754;2022-11-20T12:19:34;0.20;;;0.20;;
24771;SDS011;12870;52.274;9.754;2022-11-20T12:30:27;0.30;;;0.30;;
24771;SDS011;12870;52.274;9.754;2022-11-20T12:50:34;0.30;;;0.30;;
24771;SDS011;12870;52.274;9.754;2022-11-20T13:01:52;0.30;;;0.30;;
24771;SDS011;12870;52.274;9.754;2022-11-20T13:07:22;0.30;;;0.30;;
24771;SDS011;12870;52.274;9.754;2022-11-20T13:09:52;0.30;;;0.30;;
24771;SDS011;12870;52.274;9.754;2022-11-20T13:15:05;0.30;;;0.30;;
24771;SDS011;12870;52.274;9.754;2022-11-20T13:17:57;0.20;;;0.20;;
24771;SDS011;12870;52.274;9.754;2022-11-20T13:20:24;0.20;;;0.20;;
24771;SDS011;12870;52.274;9.754;2022-11-20T13:22:51;0.20;;;0.20;;
24771;SDS011;12870;52.274;9.754;2022-11-20T13:25:25;0.20;;;0.20;;
24771;SDS011;12870;52.274;9.754;2022-11-20T13:27:52;0.20;;;0.20;;
24771;SDS011;12870;52.274;9.754;2022-11-20T13:30:20;0.20;;;0.20;;
24771;SDS011;12870;52.274;9.754;2022-11-20T13:35:35;0.20;;;0.20;;
24771;SDS011;12870;52.274;9.754;2022-11-20T13:40:33;0.20;;;0.20;;
24771;SDS011;12870;52.274;9.754;2022-11-20T13:45:30;0.20;;;0.20;;
24771;SDS011;12870;52.274;9.754;2022-11-20T13:47:57;0.20;;;0.20;;
24771;SDS011;12870;52.274;9.754;2022-11-20T13:50:38;0.20;;;0.20;;
24771;SDS011;12870;52.274;9.754;2022-11-20T13:59:02;0.20;;;0.20;;
24771;SDS011;12870;52.274;9.754;2022-11-20T14:01:29;0.20;;;0.20;;
24771;SDS011;12870;52.274;9.754;2022-11-20T14:03:59;0.20;;;0.20;;
24771;SDS011;12870;52.274;9.754;2022-11-20T14:06:35;0.20;;;0.20;;
24771;SDS011;12870;52.274;9.754;2022-11-20T14:09:29;0.20;;;0.20;;
24771;SDS011;12870;52.274;9.754;2022-11-20T14:11:55;0.20;;;0.20;;
24771;SDS011;12870;52.274;9.754;2022-11-20T14:14:25;0.20;;;0.20;;
24771;SDS011;12870;52.274;9.754;2022-11-20T14:16:52;0.20;;;0.20;;
24771;SDS011;12870;52.274;9.754;2022-11-20T14:19:29;0.20;;;0.20;;
24771;SDS011;12870;52.274;9.754;2022-11-20T14:22:09;0.30;;;0.30;;
24771;SDS011;12870;52.274;9.754;2022-11-20T14:24:35;0.30;;;0.30;;
24771;SDS011;12870;52.274;9.754;2022-11-20T14:27:01;0.30;;;0.30;;
24771;SDS011;12870;52.274;9.754;2022-11-20T14:29:28;0.30;;;0.30;;
24771;SDS011;12870;52.274;9.754;2022-11-20T14:32:01;0.27;;;0.27;;
24771;SDS011;12870;52.274;9.754;2022-11-20T14:34:28;0.30;;;0.30;;
24771;SDS011;12870;52.274;9.754;2022-11-20T14:37:01;0.30;;;0.30;;
24771;SDS011;12870;52.274;9.754;2022-11-20T14:39:30;0.30;;;0.30;;
24771;SDS011;12870;52.274;9.754;2022-11-20T14:41:57;0.23;;;0.23;;
24771;SDS011;12870;52.274;9.754;2022-11-20T14:44:32;0.30;;;0.30;;
24771;SDS011;12870;52.274;9.754;2022-11-20T14:47:00;0.30;;;0.30;;
24771;SDS011;12870;52.274;9.754;2022-11-20T14:49:28;0.30;;;0.30;;
24771;SDS011;12870;52.274;9.754;2022-11-20T14:52:03;0.30;;;0.30;;
24771;SDS011;12870;52.274;9.754;2022-11-20T14:57:28;0.30;;;0.30;;
24771;SDS011;12870;52.274;9.754;2022-11-20T15:02:45;0.30;;;0.30;;
24771;SDS011;12870;52.274;9.754;2022-11-20T15:05:12;0.30;;;0.30;;
24771;SDS011;12870;52.274;9.754;2022-11-20T15:07:40;0.30;;;0.30;;
24771;SDS011;12870;52.274;9.754;2022-11-20T15:10:11;0.30;;;0.30;;
24771;SDS011;12870;52.274;9.754;2022-11-20T15:12:38;0.30;;;0.30;;
24771;SDS011;12870;52.274;9.754;2022-11-20T15:15:11;0.30;;;0.30;;
24771;SDS011;12870;52.274;9.754;2022-11-20T15:17:39;0.30;;;0.30;;
24771;SDS011;12870;52.274;9.754;2022-11-20T15:20:09;0.30;;;0.30;;
24771;SDS011;12870;52.274;9.754;2022-11-20T15:22:38;0.30;;;0.30;;
24771;SDS011;12870;52.274;9.754;2022-11-20T15:25:17;0.30;;;0.30;;
24771;SDS011;12870;52.274;9.754;2022-11-20T15:27:43;0.30;;;0.30;;
24771;SDS011;12870;52.274;9.754;2022-11-20T15:30:14;0.30;;;0.30;;
24771;SDS011;12870;52.274;9.754;2022-11-20T15:32:42;0.30;;;0.30;;
24771;SDS011;12870;52.274;9.754;2022-11-20T15:35:08;0.20;;;0.20;;
24771;SDS011;12870;52.274;9.754;2022-11-20T15:37:34;0.30;;;0.30;;
24771;SDS011;12870;52.274;9.754;2022-11-20T15:40:01;0.30;;;0.30;;
24771;SDS011;12870;52.274;9.754;2022-11-20T15:42:26;0.30;;;0.30;;
24771;SDS011;12870;52.274;9.754;2022-11-20T15:44:52;0.30;;;0.30;;
24771;SDS011;12870;52.274;9.754;2022-11-20T15:47:24;0.30;;;0.30;;
24771;SDS011;12870;52.274;9.754;2022-11-20T15:49:58;0.30;;;0.30;;
24771;SDS011;12870;52.274;9.754;2022-11-20T15:52:24;0.30;;;0.30;;
24771;SDS011;12870;52.274;9.754;2022-11-20T15:54:50;0.30;;;0.30;;
24771;SDS011;12870;52.274;9.754;2022-11-20T15:57:15;0.30;;;0.30;;
24771;SDS011;12870;52.274;9.754;2022-11-20T15:59:41;0.30;;;0.30;;
24771;SDS011;12870;52.274;9.754;2022-11-20T16:02:13;0.30;;;0.30;;
24771;SDS011;12870;52.274;9.754;2022-11-20T16:04:40;0.30;;;0.30;;
24771;SDS011;12870;52.274;9.754;2022-11-20T16:07:06;0.30;;;0.30;;
24771;SDS011;12870;52.274;9.754;2022-11-20T16:09:32;0.30;;;0.30;;
24771;SDS011;12870;52.274;9.754;2022-11-20T16:11:57;0.30;;;0.30;;
24771;SDS011;12870;52.274;9.754;2022-11-20T16:14:26;0.30;;;0.30;;
24771;SDS011;12870;52.274;9.754;2022-11-20T16:17:11;0.30;;;0.30;;
24771;SDS011;12870;52.274;9.754;2022-11-20T16:19:37;0.30;;;0.30;;
24771;SDS011;12870;52.274;9.754;2022-11-20T16:22:03;0.30;;;0.30;;
24771;SDS011;12870;52.274;9.754;2022-11-20T16:24:29;0.30;;;0.30;;
24771;SDS011;12870;52.274;9.754;2022-11-20T16:26:55;0.30;;;0.30;;
24771;SDS011;12870;52.274;9.754;2022-11-20T16:29:21;0.30;;;0.30;;
24771;SDS011;12870;52.274;9.754;2022-11-20T16:31:47;0.30;;;0.30;;
24771;SDS011;12870;52.274;9.754;2022-11-20T16:34:15;0.30;;;0.30;;
24771;SDS011;12870;52.274;9.754;2022-11-20T16:36:41;0.30;;;0.30;;
24771;SDS011;12870;52.274;9.754;2022-11-20T16:39:09;0.30;;;0.30;;
24771;SDS011;12870;52.274;9.754;2022-11-20T16:41:36;0.30;;;0.30;;
24771;SDS011;12870;52.274;9.754;2022-11-20T16:44:02;0.30;;;0.30;;
24771;SDS011;12870;52.274;9.754;2022-11-20T16:46:32;0.30;;;0.30;;
24771;SDS011;12870;52.274;9.754;2022-11-20T16:49:02;0.30;;;0.30;;